Station Charts

 

Station Historical Data
Daily Summary for February 14, 2018 Units:  Metric    English   Both
« Previous Day
Next Day »
Daily Weekly Monthly Yearly Custom
  High: Low: Average:
Temperature: -17.8 °C 1.4 °C 3.1 °C
Dew Point: -17.8 °C 0.3 °C 1.8 °C
Humidity: Humidity % 87 % 91 %
Wind Speed: 0 km/h 0 km/h 1.1 km/h
Wind Gust: 0 km/h - -
Wind:- - SSW
Pressure: 0 hPa 1013.4 hPa -
Precipitation: 5.59 mm    
Historical Graphs
 
 
Tabular Data for February 14, 2018
Time Temperature Dew Point Pressure Wind Wind Speed Wind Gust Humidity Rainfall Rate (Hourly)
-17.8 °C -17.8 °C 0 hPa Calm     Humidity % 0 mm
00:04 2.6 °C 1.3 °C 1015.8 hPa Calm     91 % 1.78 mm
00:09 2.5 °C 1.2 °C 1015.8 hPa SW 3.7 km/h   91 % 2.03 mm
00:14 2.4 °C 1.1 °C 1015.8 hPa SW 6.4 km/h   91 % 1.78 mm
00:19 2.4 °C 1.1 °C 1015.8 hPa WSW 5.8 km/h 5.8 km/h 91 % 2.03 mm
00:24 2.3 °C 1 °C 1015.8 hPa SW 5 km/h 5 km/h 91 % 2.03 mm
00:29 2.3 °C 1.1 °C 1015.8 hPa SW 5.6 km/h 5.6 km/h 92 % 2.03 mm
00:34 2.3 °C 1.1 °C 1015.8 hPa SW 3.7 km/h 3.7 km/h 92 % 2.29 mm
00:39 2.2 °C 1.1 °C 1015.8 hPa SW 7.4 km/h 7.4 km/h 92 % 2.03 mm
00:44 2.1 °C 0.9 °C 1015.8 hPa WSW 3.7 km/h 3.7 km/h 92 % 2.03 mm
00:49 2.1 °C 0.9 °C 1015.8 hPa SW 3.7 km/h 3.7 km/h 92 % 2.29 mm
00:54 2 °C 0.8 °C 1015.8 hPa Calm   2.3 km/h 92 % 2.29 mm
01:00 1.9 °C 0.7 °C 1015.8 hPa Calm   9.7 km/h 92 % 0 mm
01:05 1.9 °C 0.7 °C 1015.8 hPa Calm     92 % 2.03 mm
01:10 1.8 °C 0.6 °C 1015.8 hPa Calm     92 % 1.78 mm
01:15 1.8 °C 0.6 °C 1015.8 hPa West 9.3 km/h   92 % 2.03 mm
01:20 1.8 °C 0.6 °C 1015.8 hPa Calm     92 % 1.78 mm
01:25 1.8 °C 0.6 °C 1015.8 hPa Calm     92 % 1.78 mm
01:30 1.7 °C 0.6 °C 1015.8 hPa Calm     92 % 1.78 mm
01:35 1.7 °C 0.6 °C 1015.8 hPa Calm     92 % 1.78 mm
01:40 1.7 °C 0.6 °C 1015.8 hPa West 3.7 km/h   92 % 2.03 mm
01:46 1.6 °C 0.4 °C 1015.8 hPa Calm     92 % 1.78 mm
01:51 1.6 °C 0.4 °C 1015.8 hPa Calm     92 % 1.78 mm
01:56 1.6 °C 0.4 °C 1015.8 hPa Calm     92 % 1.78 mm
02:01 1.5 °C 0.3 °C 1015.8 hPa SSE 3.7 km/h   92 % 1.78 mm
02:06 1.5 °C 0.5 °C 1015.5 hPa Calm     93 % 1.52 mm
02:11 1.5 °C 0.5 °C 1015.5 hPa Calm     93 % 1.78 mm
02:16 1.4 °C 0.4 °C 1015.5 hPa Calm     93 % 1.52 mm
02:21 1.4 °C 0.4 °C 1015.5 hPa SSE 3.7 km/h   93 % 1.52 mm
02:26 1.5 °C 0.5 °C 1015.5 hPa SE 1.9 km/h   93 % 1.27 mm
02:31 1.5 °C 0.5 °C 1015.5 hPa Calm     93 % 1.27 mm
02:36 1.6 °C 0.6 °C 1015.5 hPa Calm     93 % 1.02 mm
02:41 1.6 °C 0.6 °C 1015.5 hPa Calm     93 % 0.76 mm
02:46 1.6 °C 0.6 °C 1015.5 hPa Calm     93 % 0.51 mm
02:51 1.6 °C 0.6 °C 1015.1 hPa Calm     93 % 0.25 mm
02:56 1.6 °C 0.6 °C 1015.1 hPa Calm     93 % 0.25 mm
03:01 1.6 °C 0.6 °C 1015.1 hPa Calm     93 % 0.25 mm
03:07 1.7 °C 0.7 °C 1015.1 hPa Calm     93 % 0.25 mm
03:12 1.7 °C 0.7 °C 1015.1 hPa Calm     93 % 0 mm
03:17 1.7 °C 0.7 °C 1014.8 hPa Calm     93 % 0 mm
03:22 1.7 °C 0.7 °C 1014.8 hPa Calm     93 % 0 mm
03:27 1.7 °C 0.7 °C 1014.8 hPa Calm     93 % 0 mm
03:32 1.7 °C 0.7 °C 1014.8 hPa Calm     93 % 0 mm
03:37 1.8 °C 0.8 °C 1014.8 hPa Calm     93 % 0 mm
03:42 1.8 °C 0.8 °C 1014.8 hPa Calm     93 % 0 mm
03:47 1.9 °C 0.9 °C 1014.4 hPa Calm     93 % 0 mm
03:52 1.9 °C 0.9 °C 1014.4 hPa ESE 1.9 km/h   93 % 0 mm
03:57 2.1 °C 1.1 °C 1014.4 hPa NW 5.6 km/h   93 % 0.25 mm
04:02 2.1 °C 1.1 °C 1014.4 hPa Calm     93 % 0.25 mm
04:07 2.2 °C 1.2 °C 1014.4 hPa SSW 3.7 km/h   93 % 0.25 mm
04:12 2.3 °C 1.3 °C 1014.4 hPa South 1.9 km/h   93 % 0.25 mm
04:18 2.3 °C 1.3 °C 1014.4 hPa Calm     93 % 0.25 mm
04:23 2.3 °C 1.3 °C 1014.4 hPa Calm     93 % 0.25 mm
04:28 2.4 °C 1.4 °C 1014.4 hPa ESE 3.7 km/h   93 % 0.25 mm
04:33 2.4 °C 1.4 °C 1014.1 hPa ESE 1.9 km/h   93 % 0.25 mm
04:38 2.4 °C 1.4 °C 1014.1 hPa NE 7.4 km/h   93 % 0.25 mm
04:43 2.4 °C 1.4 °C 1014.1 hPa Calm     93 % 0.25 mm
04:48 2.4 °C 1.4 °C 1014.1 hPa Calm     93 % 0.25 mm
04:53 2.4 °C 1.4 °C 1014.1 hPa Calm     93 % 0.25 mm
04:58 2.4 °C 1.4 °C 1014.1 hPa Calm     93 % 0 mm
05:03 2.4 °C 1.4 °C 1014.1 hPa Calm     93 % 0 mm
05:08 2.4 °C 1.4 °C 1014.1 hPa Calm     93 % 0 mm
05:13 2.5 °C 1.5 °C 1014.1 hPa Calm     93 % 0 mm
05:18 2.5 °C 1.5 °C 1014.1 hPa Calm     93 % 0 mm
05:23 2.5 °C 1.5 °C 1014.1 hPa Calm     93 % 0 mm
05:28 2.6 °C 1.6 °C 1014.1 hPa Calm     93 % 0 mm
05:34 2.6 °C 1.6 °C 1013.8 hPa Calm     93 % 0 mm
05:39 2.6 °C 1.6 °C 1013.8 hPa Calm     93 % 0 mm
05:44 2.7 °C 1.7 °C 1013.8 hPa Calm     93 % 0 mm
05:49 2.7 °C 1.7 °C 1013.8 hPa ESE 3.7 km/h   93 % 0 mm
05:54 2.7 °C 1.7 °C 1013.8 hPa Calm     93 % 0 mm
05:59 2.7 °C 1.7 °C 1013.8 hPa Calm     93 % 0 mm
06:04 2.7 °C 1.7 °C 1013.8 hPa Calm     93 % 0 mm
06:09 2.8 °C 1.8 °C 1013.8 hPa Calm     93 % 0 mm
06:14 2.8 °C 1.8 °C 1013.8 hPa SW 6.4 km/h   93 % 0 mm
06:19 2.8 °C 1.6 °C 1013.4 hPa NW 9.3 km/h   92 % 0 mm
06:24 2.9 °C 1.7 °C 1013.4 hPa SW 11.1 km/h   92 % 0 mm
06:29 3 °C 1.8 °C 1013.4 hPa SSW 6.4 km/h 6.4 km/h 92 % 0 mm
06:34 3 °C 1.7 °C 1013.4 hPa SW 5.6 km/h 5.6 km/h 91 % 0 mm
06:39 3.1 °C 1.8 °C 1013.4 hPa West 5.6 km/h 5.6 km/h 91 % 0 mm
06:44 3.1 °C 1.8 °C 1013.4 hPa West 9.3 km/h 9.3 km/h 91 % 0 mm
06:50 3.1 °C 1.8 °C 1013.8 hPa North 7.4 km/h 7.4 km/h 91 % 0 mm
06:55 3.1 °C 1.8 °C 1013.8 hPa SW 14.8 km/h 14.8 km/h 91 % 0 mm
07:00 3.1 °C 1.8 °C 1013.8 hPa West 3.2 km/h 19.3 km/h 91 % 0 mm
07:05 3.1 °C 1.9 °C 1014.4 hPa Calm   2.9 km/h 92 % 0 mm
07:10 3.1 °C 1.9 °C 1014.4 hPa Calm     92 % 0 mm
07:15 3 °C 1.8 °C 1014.4 hPa Calm     92 % 0 mm
07:20 3 °C 1.8 °C 1014.8 hPa Calm     92 % 0 mm
07:25 3 °C 1.8 °C 1014.8 hPa NNW 3.9 km/h   92 % 0 mm
07:30 3 °C 1.7 °C 1014.8 hPa Calm     91 % 0 mm
07:35 3 °C 1.7 °C 1015.1 hPa Calm     91 % 0 mm
07:40 3.1 °C 1.8 °C 1015.1 hPa Calm     91 % 0 mm
07:45 3.1 °C 1.8 °C 1015.1 hPa Calm     91 % 0 mm
07:50 3.1 °C 1.8 °C 1015.5 hPa Calm     91 % 0 mm
07:55 3.1 °C 1.9 °C 1015.5 hPa Calm     92 % 0 mm
08:00 3.1 °C 1.9 °C 1015.5 hPa Calm     92 % 0 mm
08:05 3 °C 1.8 °C 1015.5 hPa Calm     92 % 0 mm
08:11 3 °C 1.8 °C 1015.5 hPa Calm     92 % 0 mm
08:16 3 °C 1.7 °C 1015.5 hPa Calm     91 % 0 mm
08:21 3.1 °C 1.8 °C 1015.8 hPa Calm     91 % 0 mm
08:26 3.1 °C 1.8 °C 1015.8 hPa Calm     91 % 0 mm
08:31 3.1 °C 1.9 °C 1015.8 hPa Calm     92 % 0 mm
08:36 3.2 °C 1.9 °C 1015.8 hPa Calm     91 % 0 mm
08:41 3.2 °C 2 °C 1015.8 hPa Calm     92 % 0 mm
08:46 3.2 °C 1.7 °C 1015.8 hPa Calm     90 % 0 mm
08:51 3.3 °C 2.1 °C 1015.8 hPa Calm     92 % 0 mm
09:01 3.3 °C 1.9 °C 1015.8 hPa Calm     91 % 0 mm
09:06 3.4 °C 2.2 °C 1016.1 hPa Calm     92 % 0 mm
09:11 3.4 °C 2.2 °C 1016.1 hPa Calm     92 % 0 mm
09:16 3.4 °C 2.1 °C 1016.1 hPa WSW 3.7 km/h   91 % 0 mm
09:21 3.4 °C 2.1 °C 1016.1 hPa Calm     91 % 0 mm
09:26 3.6 °C 2.4 °C 1016.1 hPa Calm     92 % 0 mm
09:32 3.6 °C 2.4 °C 1016.5 hPa Calm     92 % 0.51 mm
09:37 3.7 °C 2.4 °C 1016.5 hPa SSE 3.7 km/h   91 % 0.51 mm
09:42 3.7 °C 2.4 °C 1016.5 hPa Calm     91 % 0.51 mm
09:47 3.7 °C 2.4 °C 1016.8 hPa WSW 5.6 km/h   91 % 0.51 mm
09:52 3.7 °C 2.4 °C 1016.8 hPa SE 1.9 km/h   91 % 0.51 mm
09:57 3.7 °C 2.5 °C 1016.8 hPa Calm     92 % 0.51 mm
10:02 3.7 °C 2.4 °C 1016.8 hPa West 3.7 km/h   91 % 0.51 mm
10:07 3.6 °C 2.4 °C 1016.8 hPa SSW 3.7 km/h   92 % 0.51 mm
10:12 3.7 °C 2.5 °C 1016.8 hPa Calm     92 % 0.51 mm
10:17 3.7 °C 2.5 °C 1016.8 hPa Calm     92 % 0.51 mm
10:22 3.7 °C 2.4 °C 1016.8 hPa Calm     91 % 0.51 mm
10:27 3.7 °C 2.5 °C 1016.8 hPa Calm     92 % 0.51 mm
10:32 3.7 °C 2.5 °C 1017.2 hPa Calm     92 % 0 mm
10:38 3.8 °C 2.4 °C 1017.2 hPa Calm     91 % 0 mm
10:43 3.8 °C 2.4 °C 1017.2 hPa SW 7.4 km/h   91 % 0 mm
10:48 3.8 °C 2.6 °C 1017.5 hPa SSW 7.4 km/h   92 % 0 mm
10:53 3.8 °C 2.6 °C 1017.5 hPa Calm     92 % 0 mm
10:58 3.9 °C 2.6 °C 1017.5 hPa Calm     91 % 0 mm
11:00 3.9 °C 2.7 °C 1017.5 hPa Calm     92 % 0 mm
11:05 4 °C 2.8 °C 1017.5 hPa Calm     92 % 0 mm
11:10 4 °C 2.8 °C 1017.5 hPa Calm     92 % 0 mm
11:15 4.1 °C 2.9 °C 1017.5 hPa Calm     92 % 0 mm
11:20 4.1 °C 2.9 °C 1017.5 hPa Calm     92 % 0 mm
11:25 4.2 °C 3 °C 1017.5 hPa Calm     92 % 0 mm
11:30 4.1 °C 2.6 °C 1017.5 hPa Calm     90 % 0 mm
11:35 4.1 °C 2.8 °C 1017.8 hPa Calm     91 % 0 mm
11:40 4.1 °C 2.9 °C 1017.8 hPa Calm     92 % 0 mm
11:45 4.1 °C 2.9 °C 1017.8 hPa Calm     92 % 0 mm
11:50 4.1 °C 2.8 °C 1017.8 hPa Calm     91 % 0 mm
11:55 4.2 °C 3 °C 1017.8 hPa Calm     92 % 0 mm
12:01 4.2 °C 3 °C 1017.8 hPa Calm     92 % 0 mm
12:06 4.2 °C 3 °C 1017.8 hPa Calm     92 % 0 mm
12:11 4.2 °C 3 °C 1017.8 hPa Calm     92 % 0 mm
12:16 4.1 °C 2.9 °C 1017.8 hPa Calm     92 % 0 mm
12:21 4.1 °C 2.9 °C 1018.2 hPa Calm     92 % 0 mm
12:26 4.2 °C 3 °C 1018.2 hPa Calm     92 % 0 mm
12:31 4.2 °C 3 °C 1018.2 hPa Calm     92 % 0 mm
12:36 4.2 °C 2.9 °C 1018.2 hPa SW 2.9 km/h   91 % 0 mm
12:41 4.2 °C 2.9 °C 1018.2 hPa Calm     91 % 0 mm
12:46 4.2 °C 3 °C 1018.2 hPa North 3.7 km/h   92 % 0 mm
12:51 4.2 °C 2.7 °C 1018.2 hPa NE 5.6 km/h   90 % 0 mm
12:56 4.2 °C 2.9 °C 1018.2 hPa Calm     91 % 0 mm
13:01 4.2 °C 2.9 °C 1018.2 hPa Calm     91 % 0.25 mm
13:07 4.1 °C 2.9 °C 1018.2 hPa Calm     92 % 0.25 mm
13:12 4 °C 2.8 °C 1018.2 hPa SW 1.9 km/h   92 % 0.25 mm
13:16 4 °C 2.8 °C 1018.2 hPa Calm     92 % 0.25 mm
13:21 4 °C 2.7 °C 1018.2 hPa SW 3.7 km/h   91 % 0.25 mm
13:26 3.9 °C 2.7 °C 1018.2 hPa Calm     92 % 0.51 mm
13:31 3.9 °C 2.7 °C 1018.2 hPa Calm     92 % 0.51 mm
13:36 3.9 °C 2.7 °C 1018.5 hPa Calm     92 % 0.51 mm
13:41 4 °C 2.8 °C 1018.5 hPa Calm     92 % 0.51 mm
13:46 4 °C 2.8 °C 1018.5 hPa Calm     92 % 0.51 mm
13:51 4.1 °C 2.9 °C 1018.5 hPa Calm     92 % 0.51 mm
13:56 4.1 °C 2.9 °C 1018.5 hPa Calm     92 % 0.51 mm
14:01 4.1 °C 2.9 °C 1018.5 hPa North 3.7 km/h   92 % 0.25 mm
14:07 4.1 °C 2.9 °C 1018.5 hPa NNE 3.7 km/h   92 % 0.51 mm
14:12 4.1 °C 2.9 °C 1018.5 hPa Calm     92 % 0.51 mm
14:17 4.1 °C 2.8 °C 1018.8 hPa North 5.6 km/h   91 % 0.51 mm
14:22 4.1 °C 2.8 °C 1018.8 hPa Calm     91 % 0.51 mm
14:27 4.1 °C 2.9 °C 1018.8 hPa WSW 3.7 km/h   92 % 0.25 mm
14:32 4.2 °C 3 °C 1018.8 hPa Calm     92 % 0.25 mm
14:37 4.3 °C 3.3 °C 1018.8 hPa Calm     93 % 0.25 mm
14:42 4.3 °C 3.1 °C 1018.8 hPa North 5 km/h   92 % 0.25 mm
14:47 4.3 °C 2.7 °C 1019.2 hPa NW 9.3 km/h   89 % 0.25 mm
14:52 4.3 °C 2.8 °C 1019.2 hPa NNW 1.9 km/h   90 % 0.25 mm
14:57 4.3 °C 2.9 °C 1019.2 hPa Calm     91 % 0.25 mm
15:02 4.3 °C 2.8 °C 1019.5 hPa North 1.9 km/h   90 % 0.25 mm
15:07 4.3 °C 2.7 °C 1019.5 hPa North 3.7 km/h   89 % 0 mm
15:12 4.3 °C 2.5 °C 1019.5 hPa NW 7.4 km/h   88 % 0 mm
15:17 4.3 °C 2.7 °C 1019.5 hPa North 3.7 km/h 3.7 km/h 89 % 0 mm
15:23 4.3 °C 2.5 °C 1019.5 hPa NNE 5.8 km/h 5.8 km/h 88 % 0 mm
15:28 4.3 °C 2.5 °C 1019.5 hPa SSW 1.9 km/h 2.9 km/h 88 % 0 mm
15:33 4.3 °C 2.5 °C 1019.9 hPa NNE 3.7 km/h 3.7 km/h 88 % 0 mm
15:38 4.3 °C 2.5 °C 1019.9 hPa North 3.9 km/h   88 % 0 mm
15:43 4.3 °C 2.7 °C 1019.9 hPa Calm     89 % 0 mm
15:48 4.3 °C 2.7 °C 1019.9 hPa Calm     89 % 0 mm
15:53 4.3 °C 2.3 °C 1019.9 hPa Calm     87 % 0 mm
15:58 4.3 °C 2.3 °C 1019.9 hPa Calm     87 % 0 mm
16:03 4.3 °C 2.3 °C 1020.2 hPa NNW 3.7 km/h   87 % 0 mm
16:08 4.3 °C 2.7 °C 1020.2 hPa Calm     89 % 0 mm
16:13 4.3 °C 2.3 °C 1020.2 hPa Calm     87 % 0 mm
16:18 4.3 °C 2.5 °C 1020.2 hPa Calm     88 % 0 mm
16:23 4.3 °C 2.5 °C 1020.2 hPa Calm     88 % 0 mm
16:28 4.3 °C 2.5 °C 1020.2 hPa Calm     88 % 0 mm
16:33 4.3 °C 2.5 °C 1020.5 hPa Calm     88 % 0 mm
16:39 4.3 °C 2.5 °C 1020.5 hPa NNE 3.2 km/h   88 % 0 mm
16:44 4.3 °C 2.5 °C 1020.5 hPa Calm     88 % 0 mm
16:49 4.2 °C 2.4 °C 1020.5 hPa Calm     88 % 0 mm
16:54 4.2 °C 2.4 °C 1020.5 hPa Calm     88 % 0 mm
16:59 4.2 °C 2.4 °C 1020.5 hPa Calm     88 % 0 mm
17:04 4.2 °C 2.6 °C 1020.5 hPa Calm     89 % 0 mm
17:09 4.2 °C 2.4 °C 1020.5 hPa Calm     88 % 0 mm
17:14 4.2 °C 2.4 °C 1020.5 hPa Calm     88 % 0 mm
17:19 4.1 °C 2.3 °C 1020.5 hPa Calm     88 % 0 mm
17:24 4.1 °C 2.3 °C 1020.5 hPa Calm     88 % 0 mm
17:29 4.1 °C 2.3 °C 1020.5 hPa Calm     88 % 0 mm
17:34 4 °C 2.3 °C 1020.5 hPa Calm     89 % 0 mm
17:39 3.9 °C 2.3 °C 1020.5 hPa Calm     89 % 0 mm
17:44 3.8 °C 2.2 °C 1020.5 hPa Calm     89 % 0 mm
17:49 3.7 °C 2.1 °C 1020.9 hPa Calm     89 % 0 mm
17:54 3.6 °C 1.9 °C 1020.9 hPa Calm     89 % 0 mm
17:59 3.4 °C 1.8 °C 1020.9 hPa Calm     89 % 0 mm
18:04 3.4 °C 1.9 °C 1021.2 hPa Calm     90 % 0 mm
18:10 3.3 °C 1.8 °C 1021.2 hPa Calm     90 % 0 mm
18:15 3.2 °C 1.9 °C 1021.2 hPa Calm     91 % 0 mm
18:20 3.2 °C 1.9 °C 1021.6 hPa Calm     91 % 0 mm
18:25 3.1 °C 1.8 °C 1021.6 hPa Calm     91 % 0 mm
18:30 3.1 °C 1.8 °C 1021.6 hPa Calm     91 % 0 mm
18:35 3 °C 1.7 °C 1021.6 hPa Calm     91 % 0 mm
18:40 3 °C 1.7 °C 1021.6 hPa Calm     91 % 0 mm
18:45 2.9 °C 1.7 °C 1021.6 hPa Calm     92 % 0 mm
18:50 2.9 °C 1.7 °C 1022.2 hPa Calm     92 % 0 mm
18:55 2.9 °C 1.7 °C 1022.2 hPa Calm     92 % 0 mm
19:00 2.9 °C 1.7 °C 1022.2 hPa Calm     92 % 0 mm
19:05 2.9 °C 1.7 °C 1022.2 hPa Calm     92 % 0 mm
19:10 2.9 °C 1.7 °C 1022.2 hPa Calm     92 % 0 mm
19:15 2.9 °C 1.7 °C 1022.2 hPa Calm     92 % 0 mm
19:20 2.9 °C 1.7 °C 1022.6 hPa Calm     92 % 0 mm
19:25 2.9 °C 1.7 °C 1022.6 hPa Calm     92 % 0 mm
19:31 2.9 °C 1.9 °C 1022.6 hPa Calm     93 % 0 mm
19:36 2.9 °C 1.9 °C 1022.6 hPa Calm     93 % 0 mm
19:41 2.9 °C 1.7 °C 1022.6 hPa Calm     92 % 0 mm
19:46 2.9 °C 1.9 °C 1022.6 hPa Calm     93 % 0 mm
19:51 2.9 °C 1.9 °C 1022.6 hPa Calm     93 % 0 mm
19:56 2.9 °C 1.9 °C 1022.6 hPa Calm     93 % 0 mm
20:01 2.8 °C 1.6 °C 1022.6 hPa Calm     92 % 0 mm
20:06 2.8 °C 1.6 °C 1022.9 hPa Calm     92 % 0 mm
20:11 2.8 °C 1.8 °C 1022.9 hPa Calm     93 % 0 mm
20:16 2.8 °C 1.8 °C 1022.9 hPa Calm     93 % 0 mm
20:21 2.8 °C 1.8 °C 1023.2 hPa Calm     93 % 0 mm
20:26 2.7 °C 1.7 °C 1023.2 hPa Calm     93 % 0 mm
20:31 2.7 °C 1.7 °C 1023.2 hPa Calm     93 % 0 mm
20:36 2.7 °C 1.7 °C 1023.2 hPa Calm     93 % 0 mm
20:41 2.7 °C 1.7 °C 1023.2 hPa Calm     93 % 0 mm
20:46 2.7 °C 1.7 °C 1023.2 hPa Calm     93 % 0 mm
20:51 2.8 °C 1.8 °C 1023.6 hPa Calm     93 % 0 mm
20:57 2.8 °C 1.8 °C 1023.6 hPa Calm     93 % 0 mm
21:02 2.8 °C 1.8 °C 1023.6 hPa Calm     93 % 0 mm
21:07 2.8 °C 1.8 °C 1023.6 hPa Calm     93 % 0 mm
21:12 2.8 °C 1.8 °C 1023.6 hPa Calm     93 % 0 mm
21:17 2.8 °C 1.8 °C 1023.6 hPa Calm     93 % 0 mm
21:22 2.7 °C 1.7 °C 1023.6 hPa Calm     93 % 0 mm
21:27 2.8 °C 1.8 °C 1023.6 hPa Calm     93 % 0 mm
21:32 2.8 °C 1.8 °C 1023.9 hPa Calm     93 % 0 mm
21:37 2.8 °C 1.8 °C 1023.9 hPa Calm     93 % 0 mm
21:42 2.8 °C 1.8 °C 1023.9 hPa Calm     93 % 0 mm
21:47 2.8 °C 1.8 °C 1023.9 hPa Calm     93 % 0 mm
21:52 2.8 °C 1.8 °C 1023.9 hPa Calm     93 % 0 mm
21:57 2.8 °C 1.8 °C 1023.9 hPa Calm     93 % 0 mm
22:02 2.8 °C 1.8 °C 1023.9 hPa Calm     93 % 0 mm
22:07 2.8 °C 1.8 °C 1023.9 hPa Calm     93 % 0 mm
22:12 2.8 °C 1.8 °C 1023.9 hPa Calm     93 % 0 mm
22:17 2.8 °C 1.8 °C 1024.3 hPa Calm     93 % 0 mm
22:23 2.8 °C 1.8 °C 1024.3 hPa Calm     93 % 0 mm
22:28 2.8 °C 1.8 °C 1024.3 hPa Calm     93 % 0 mm
22:33 2.7 °C 1.7 °C 1023.9 hPa Calm     93 % 0 mm
22:38 2.7 °C 1.7 °C 1023.9 hPa Calm     93 % 0 mm
22:43 2.7 °C 1.7 °C 1023.9 hPa Calm     93 % 0 mm
22:48 2.7 °C 1.7 °C 1024.3 hPa Calm     93 % 0 mm
22:53 2.6 °C 1.6 °C 1024.3 hPa Calm     93 % 0 mm
22:58 2.6 °C 1.6 °C 1024.3 hPa Calm     93 % 0 mm
23:03 2.6 °C 1.6 °C 1024.3 hPa Calm     93 % 0 mm
23:08 2.7 °C 1.7 °C 1024.3 hPa Calm     93 % 0 mm
23:13 2.7 °C 1.7 °C 1024.3 hPa Calm     93 % 0 mm
23:18 2.7 °C 1.7 °C 1024.3 hPa Calm     93 % 0 mm
23:23 2.7 °C 1.7 °C 1024.3 hPa Calm     93 % 0 mm
23:28 2.7 °C 1.7 °C 1024.3 hPa Calm     93 % 0 mm
23:33 2.7 °C 1.7 °C 1024.6 hPa Calm     93 % 0 mm
23:38 2.7 °C 1.7 °C 1024.6 hPa Calm     93 % 0 mm
23:44 2.7 °C 1.7 °C 1024.6 hPa Calm     93 % 0 mm
23:49 2.7 °C 1.7 °C 1024.6 hPa Calm     93 % 0 mm
23:54 2.7 °C 1.7 °C 1024.6 hPa Calm     93 % 0 mm
23:59 2.7 °C 1.7 °C 1024.6 hPa Calm     93 % 0 mm
Compliments of Weather Underground - 2 mb